Stations météo

réclame
Mon MeteoGroup
Sumburgh, Grande-Bretagne (3003): Température de l'air & dewpoint: 06.12.2017 19:00:00 - 12.12.2017 19:00:00 (GMT)Sumburgh, Grande-Bretagne (3003): Vitesse du vent: 06.12.2017 19:00:00 - 12.12.2017 19:00:00 (GMT)Sumburgh, Grande-Bretagne (3003): Direction du vent: 06.12.2017 19:00:00 - 12.12.2017 19:00:00 (GMT)Sumburgh, Grande-Bretagne (3003): visibility: 06.12.2017 19:00:00 - 12.12.2017 19:00:00 (GMT)
Date & Time tt [°C] td [°C] ff [km/h] ff [knt] dd vv [km]
12.12.2017 19:00:00 5,0 1,0 26 14 SSW 10
12.12.2017 18:00:00 5,0 1,0 18 10 S 10
12.12.2017 17:00:00 4,0 1,0 11 6 SSW 10
12.12.2017 16:00:00 4,0 1,0 9 5 SW 10
12.12.2017 15:00:00 4,0 2,0 4 2 SSW 10
12.12.2017 14:00:00 5,0 1,0 11 6 WSW 10
12.12.2017 13:00:00 5,0 1,0 5 3 - 10
12.12.2017 12:00:00 - - - - - -
12.12.2017 11:00:00 2,0 -1,0 0 0 N 10
12.12.2017 10:00:00 1,0 -2,0 0 0 N 10
12.12.2017 09:00:00 - - - - - -
12.12.2017 08:00:00 3,0 -1,0 8 4 NNW 10
12.12.2017 07:00:00 3,0 -1,0 11 6 NNW 10
12.12.2017 06:00:00 2,0 -1,0 15 8 N 10
12.12.2017 05:00:00 2,0 0,0 13 7 N 10
12.12.2017 04:00:00 3,0 0,0 13 7 NNE 10
12.12.2017 03:00:00 3,0 1,0 15 8 N 10
12.12.2017 02:00:00 4,0 1,0 13 7 NNE 10
12.12.2017 01:00:00 4,0 2,0 16 9 NE 10
12.12.2017 00:00:00 4,0 1,0 15 8 NE 10
11.12.2017 23:00:00 2,0 1,0 13 7 NNE 10
11.12.2017 22:00:00 1,0 0,0 15 8 N 10
11.12.2017 21:00:00 1,0 0,0 11 6 N 10
11.12.2017 20:00:00 3,0 1,0 5 3 NNW 10
11.12.2017 19:00:00 3,0 1,0 5 3 NW 10
11.12.2017 18:00:00 3,0 2,0 13 7 WSW 10
11.12.2017 17:00:00 4,0 2,0 24 13 W 10
11.12.2017 16:00:00 4,0 2,0 24 13 NW 10
11.12.2017 15:00:00 4,0 1,0 13 7 WNW 10
11.12.2017 14:00:00 4,0 1,0 13 7 WNW 10
11.12.2017 13:00:00 3,0 1,0 16 9 NW 10
11.12.2017 12:00:00 3,0 -1,0 11 6 NNW 10
11.12.2017 11:00:00 3,0 -1,0 11 6 N 10
11.12.2017 10:00:00 3,0 -1,0 13 7 N 10
11.12.2017 09:00:00 3,0 0,0 18 10 NNW 10
11.12.2017 08:00:00 3,0 1,0 8 4 N 10
11.12.2017 07:00:00 4,0 1,0 24 13 NE 10
11.12.2017 06:00:00 2,0 -2,0 13 7 N 10
11.12.2017 05:00:00 1,0 -3,0 9 5 N 10
11.12.2017 04:00:00 2,0 -2,0 9 5 N 10
11.12.2017 03:00:00 3,0 -1,0 11 6 NNW 10
11.12.2017 02:00:00 2,0 -1,0 11 6 NNW 10
11.12.2017 01:00:00 1,0 -2,0 4 2 N 10
11.12.2017 00:00:00 2,0 -1,0 5 3 N 10
10.12.2017 23:00:00 2,0 0,0 11 6 NNW 10
10.12.2017 22:00:00 2,0 0,0 9 5 NNW 10
10.12.2017 21:00:00 2,0 1,0 9 5 NNE 10
10.12.2017 20:00:00 2,0 1,0 8 4 NE 6
10.12.2017 19:00:00 1,0 0,0 9 5 N 10
10.12.2017 18:00:00 1,0 0,0 5 3 N 10
10.12.2017 17:00:00 1,0 0,0 2 1 NNW 10
10.12.2017 16:00:00 1,0 0,0 0 0 N 10
10.12.2017 15:00:00 2,0 0,0 0 0 N 10
10.12.2017 14:00:00 - - - - - -
10.12.2017 13:00:00 3,0 1,0 0 0 N 10
10.12.2017 12:00:00 3,0 1,0 4 2 W 10
10.12.2017 11:00:00 3,0 1,0 5 3 WNW 10
10.12.2017 10:00:00 3,0 1,0 15 8 WNW 10
10.12.2017 09:00:00 4,0 1,0 16 9 WNW 10
10.12.2017 08:00:00 - - - - - -
10.12.2017 07:00:00 4,0 1,0 26 14 WNW 10
10.12.2017 06:00:00 3,0 1,0 15 8 WNW 10
10.12.2017 05:00:00 3,0 1,0 18 10 W 2,8
10.12.2017 04:00:00 2,0 0,0 16 9 NNW 3,4
10.12.2017 03:00:00 3,0 1,0 28 15 WNW 10
10.12.2017 02:00:00 3,0 1,0 34 18 WNW 10
10.12.2017 01:00:00 3,0 0,0 37 20 WNW 10
10.12.2017 00:00:00 2,0 0,0 35 19 WNW 10
09.12.2017 23:00:00 3,0 0,0 34 18 WNW 10
09.12.2017 22:00:00 1,0 -1,0 42 23 NW 10
09.12.2017 21:00:00 2,0 -2,0 35 19 WNW 10
09.12.2017 20:00:00 2,0 -2,0 35 19 WNW 10
09.12.2017 19:00:00 2,0 -3,0 31 17 NW 10
09.12.2017 18:00:00 1,0 -1,0 28 15 NW 10
09.12.2017 17:00:00 0,0 0,0 31 17 WNW 10
09.12.2017 16:00:00 0,0 -1,0 26 14 NNW 9
09.12.2017 15:00:00 1,0 -2,0 31 17 NW 10
09.12.2017 14:00:00 1,0 -2,0 29 16 N 3,0
09.12.2017 13:00:00 - - - - - -
09.12.2017 12:00:00 2,0 -4,0 29 16 NNW 10
09.12.2017 11:00:00 1,0 -3,0 18 10 NNW 10
09.12.2017 10:00:00 2,0 -4,0 28 15 NNW 10
09.12.2017 09:00:00 0,0 -3,0 26 14 NNW 10
09.12.2017 08:00:00 1,0 -2,0 44 24 NW 5
09.12.2017 07:00:00 1,0 -2,0 35 19 NW 8
09.12.2017 06:00:00 2,0 -4,0 37 20 NNW 10
09.12.2017 05:00:00 1,0 -2,0 37 20 NNW 10
09.12.2017 04:00:00 0,0 0,0 48 26 NW 1,1
09.12.2017 03:00:00 2,0 -2,0 39 21 NW 10
09.12.2017 02:00:00 2,0 -2,0 28 15 NNW 10
09.12.2017 01:00:00 3,0 -2,0 35 19 NNW 10
09.12.2017 00:00:00 2,0 -2,0 44 24 N 10
08.12.2017 23:00:00 4,0 -2,0 31 17 NNW 10
08.12.2017 22:00:00 4,0 -4,0 41 22 NNW 10
08.12.2017 21:00:00 4,0 -3,0 41 22 NNW 10
08.12.2017 20:00:00 4,0 -3,0 44 24 NNW 10
08.12.2017 19:00:00 3,0 -1,0 44 24 N 10
08.12.2017 18:00:00 4,0 -1,0 35 19 N 10
08.12.2017 17:00:00 5,0 -1,0 44 24 NNW 10
08.12.2017 16:00:00 5,0 0,0 44 24 NNW 10
08.12.2017 15:00:00 4,0 1,0 34 18 NNW 10
08.12.2017 14:00:00 5,0 0,0 42 23 NNW 10
08.12.2017 13:00:00 4,0 1,0 41 22 NNW 10
08.12.2017 12:00:00 3,0 1,0 52 28 NW 9
08.12.2017 11:00:00 4,0 0,0 52 28 NW 10
08.12.2017 10:00:00 3,0 1,0 44 24 NW 9
08.12.2017 09:00:00 3,0 -1,0 52 28 NW 10
08.12.2017 08:00:00 4,0 -5,0 52 28 NW 10
08.12.2017 07:00:00 4,0 -4,0 55 30 NW 10
08.12.2017 06:00:00 3,0 -4,0 59 32 NW 10
08.12.2017 05:00:00 4,0 -3,0 59 32 NW 10
08.12.2017 04:00:00 4,0 -3,0 55 30 NNW 10
08.12.2017 03:00:00 4,0 -1,0 50 27 NNW 10
08.12.2017 02:00:00 3,0 0,0 46 25 NW 3,2
08.12.2017 01:00:00 4,0 0,0 57 31 NW 10
08.12.2017 00:00:00 3,0 -1,0 61 33 NW 10
07.12.2017 23:00:00 3,0 -1,0 67 36 NW 5
07.12.2017 22:00:00 4,0 -1,0 54 29 NW 10
07.12.2017 21:00:00 3,0 0,0 61 33 NW 10
07.12.2017 20:00:00 4,0 -1,0 68 37 NW 10
07.12.2017 19:00:00 4,0 1,0 72 39 NW 7
07.12.2017 18:00:00 4,0 1,0 76 41 NW 4,0
07.12.2017 17:00:00 5,0 1,0 87 47 NW 3,3
07.12.2017 16:00:00 5,0 2,0 100 54 NW 3,1
07.12.2017 15:00:00 5,0 3,0 89 48 NW 3,5
07.12.2017 14:00:00 6,0 3,0 57 31 NW 10
07.12.2017 13:00:00 7,0 2,0 46 25 WNW 10
07.12.2017 12:00:00 6,0 4,0 48 26 WNW 6
07.12.2017 11:00:00 7,0 5,0 44 24 W 10
07.12.2017 10:00:00 6,0 4,0 52 28 SW 6
07.12.2017 09:00:00 7,0 4,0 59 32 SW 8
07.12.2017 08:00:00 7,0 3,0 52 28 SSW 10
07.12.2017 07:00:00 7,0 2,0 41 22 SSW 7
07.12.2017 06:00:00 7,0 2,0 50 27 SW 10
07.12.2017 05:00:00 8,0 4,0 55 30 WSW 10
07.12.2017 04:00:00 9,0 8,0 48 26 WSW 10
07.12.2017 03:00:00 10,0 9,0 44 24 SSW 5
07.12.2017 02:00:00 11,0 9,0 41 22 SSW 8
07.12.2017 01:00:00 11,0 9,0 42 23 SSW 10
07.12.2017 00:00:00 11,0 9,0 41 22 SSW 10
06.12.2017 23:00:00 10,0 8,0 34 18 SSW 10
06.12.2017 22:00:00 11,0 9,0 39 21 SSW 10
06.12.2017 21:00:00 10,0 9,0 37 20 SSW 10
06.12.2017 20:00:00 10,0 9,0 41 22 SSW 8
06.12.2017 19:00:00 - - - - - -

tt = Température de l'air
td = dewpoint
ff = Vitesse du vent
dd = Direction du vent
vv = visibility

stations d'obs. à proximité